Time;durP1;ratioP1;P1;durP2;ratioP2;P2;SDS_P1;SDS_P2;PMS_P1;PMS_P2;Temp;Humidity;BMP_temperature;BMP_pressure;BME280_temperature;BME280_humidity;BME280_pressure;Samples;Min_cycle;Max_cycle;Signal;HPM_P1;HPM_P2
2023/04/04 00:01:23;;;;;;;0.85;0.85;;;1.30;99.90;;;;;;5092656;28;20094;-79
2023/04/04 00:03:50;;;;;;;0.73;0.73;;;1.30;99.90;;;;;;5093802;28;20392;-79
2023/04/04 00:06:19;;;;;;;1.38;0.82;;;1.40;99.90;;;;;;5094177;28;20079;-79
2023/04/04 00:08:46;;;;;;;0.85;0.85;;;1.40;99.90;;;;;;5094178;28;20354;-79
2023/04/04 00:11:12;;;;;;;0.93;0.93;;;1.40;99.90;;;;;;5094112;28;20035;-78
2023/04/04 00:13:38;;;;;;;0.77;0.77;;;1.30;99.90;;;;;;5094041;28;20074;-78
2023/04/04 00:16:04;;;;;;;1.10;1.00;;;1.20;99.90;;;;;;5093944;28;20032;-79
2023/04/04 00:18:31;;;;;;;1.10;1.00;;;1.30;99.90;;;;;;5092474;28;20047;-79
2023/04/04 00:20:57;;;;;;;1.05;0.90;;;1.20;99.90;;;;;;5075421;28;20040;-78
2023/04/04 00:23:23;;;;;;;0.80;0.80;;;1.20;99.90;;;;;;5093797;28;20484;-79
2023/04/04 00:25:52;;;;;;;0.98;0.98;;;1.20;99.90;;;;;;5093532;28;20351;-79
2023/04/04 00:28:21;;;;;;;0.80;0.80;;;1.10;99.90;;;;;;5092224;28;20047;-79
2023/04/04 00:30:47;;;;;;;0.80;0.80;;;1.10;99.90;;;;;;5093795;28;20047;-78
2023/04/04 00:33:13;;;;;;;0.90;0.90;;;1.00;99.90;;;;;;5094132;28;20032;-79
2023/04/04 00:35:39;;;;;;;0.90;0.90;;;1.00;99.90;;;;;;5093363;28;20055;-78
2023/04/04 00:38:05;;;;;;;0.90;0.90;;;0.90;99.90;;;;;;5093240;28;20064;-78
2023/04/04 00:40:31;;;;;;;0.80;0.80;;;0.90;99.90;;;;;;5092396;28;20047;-78
2023/04/04 00:42:59;;;;;;;1.05;0.90;;;0.80;99.90;;;;;;5091990;28;20044;-78
2023/04/04 00:45:26;;;;;;;0.80;0.80;;;0.70;99.90;;;;;;5092156;28;20066;-78
2023/04/04 00:47:53;;;;;;;0.73;0.73;;;0.50;99.90;;;;;;5126303;28;20062;-79
2023/04/04 00:50:19;;;;;;;1.17;1.17;;;0.50;99.90;;;;;;5093731;28;20115;-79
2023/04/04 00:52:45;;;;;;;0.90;0.90;;;0.50;99.90;;;;;;5093841;28;20074;-79
2023/04/04 00:55:11;;;;;;;0.95;0.95;;;0.60;99.90;;;;;;5092096;28;20047;-79
2023/04/04 00:57:37;;;;;;;1.08;1.00;;;0.70;99.90;;;;;;5093548;28;20044;-79
2023/04/04 01:00:05;;;;;;;0.90;0.90;;;0.80;99.90;;;;;;5092270;28;20115;-78
2023/04/04 01:02:31;;;;;;;0.90;0.90;;;0.80;99.90;;;;;;5075141;28;20048;-79
2023/04/04 01:04:57;;;;;;;1.13;0.98;;;0.80;99.90;;;;;;5092002;28;20036;-79
2023/04/04 01:07:23;;;;;;;0.90;0.90;;;0.80;99.90;;;;;;5126402;28;20491;-79
2023/04/04 01:09:49;;;;;;;0.90;0.90;;;0.70;99.90;;;;;;5093503;28;20035;-79
2023/04/04 01:12:15;;;;;;;0.90;0.90;;;0.70;99.90;;;;;;5093402;28;20080;-79
2023/04/04 01:14:41;;;;;;;0.90;0.90;;;0.70;99.90;;;;;;5093348;28;20067;-78
2023/04/04 01:17:07;;;;;;;0.95;0.95;;;0.70;99.90;;;;;;5091776;28;20115;-78
2023/04/04 01:19:37;;;;;;;0.90;0.90;;;0.60;99.90;;;;;;5092991;28;20068;-78
2023/04/04 01:22:04;;;;;;;1.00;1.00;;;0.60;99.90;;;;;;5093550;28;20040;-78
2023/04/04 01:24:33;;;;;;;1.08;1.08;;;0.60;99.90;;;;;;5093185;28;20101;-79
2023/04/04 01:26:59;;;;;;;0.90;0.90;;;0.50;99.90;;;;;;5093221;28;20110;-79
2023/04/04 01:29:26;;;;;;;0.90;0.90;;;0.50;99.90;;;;;;5093170;28;20090;-79
2023/04/04 01:32:12;;;;;;;1.10;1.10;;;0.50;99.90;;;;;;5093278;28;20044;-78
2023/04/04 01:35:04;;;;;;;1.02;1.00;;;0.50;99.90;;;;;;5097237;28;20377;-79
2023/04/04 01:37:37;;;;;;;1.20;1.10;;;0.40;99.90;;;;;;5095365;28;20051;-79
2023/04/04 01:40:34;;;;;;;1.10;1.08;;;0.30;99.90;;;;;;5095585;28;20476;-79
2023/04/04 01:43:00;;;;;;;1.20;1.10;;;0.30;99.90;;;;;;5087123;28;20067;-79
2023/04/04 01:45:26;;;;;;;1.00;1.00;;;0.30;99.90;;;;;;5129390;27;20036;-79
2023/04/04 01:47:52;;;;;;;1.20;1.10;;;0.20;99.90;;;;;;5095319;28;20503;-79
2023/04/04 01:50:17;;;;;;;1.00;1.00;;;0.10;99.90;;;;;;5078308;28;20040;-79
2023/04/04 01:52:43;;;;;;;1.20;1.10;;;0.10;99.90;;;;;;5096842;28;20078;-79
2023/04/04 01:55:09;;;;;;;0.90;0.90;;;0.20;99.90;;;;;;5095116;28;20044;-79
2023/04/04 01:57:35;;;;;;;1.40;1.30;;;0.20;99.90;;;;;;5095360;28;20052;-79
2023/04/04 02:00:01;;;;;;;1.30;1.20;;;0.20;99.90;;;;;;5096553;28;20035;-79
2023/04/04 02:02:26;;;;;;;1.10;1.10;;;0.20;99.90;;;;;;5094881;28;20044;-79
2023/04/04 02:04:52;;;;;;;1.05;1.00;;;0.30;99.90;;;;;;5078082;28;20032;-79
2023/04/04 02:07:18;;;;;;;1.08;1.08;;;0.30;99.90;;;;;;5096424;28;20040;-79
2023/04/04 02:09:44;;;;;;;1.15;1.10;;;0.40;99.90;;;;;;5129072;27;20046;-79
2023/04/04 02:12:10;;;;;;;1.20;1.20;;;0.40;99.90;;;;;;5096308;28;20108;-79
2023/04/04 02:14:36;;;;;;;1.33;1.10;;;0.50;99.90;;;;;;5094796;28;20036;-79
2023/04/04 02:17:02;;;;;;;1.17;1.10;;;0.50;99.90;;;;;;5094924;28;20101;-79
2023/04/04 02:19:28;;;;;;;1.15;1.05;;;0.50;99.90;;;;;;5096308;28;20469;-79
2023/04/04 02:21:55;;;;;;;1.20;1.10;;;0.40;99.90;;;;;;5095787;28;20476;-79
2023/04/04 02:24:21;;;;;;;1.25;1.15;;;0.30;99.90;;;;;;5128681;27;20044;-79
2023/04/04 02:26:47;;;;;;;1.23;1.15;;;0.30;99.90;;;;;;5094515;28;20052;-79
2023/04/04 02:29:12;;;;;;;1.17;1.10;;;0.10;99.90;;;;;;5096118;28;20036;-79
2023/04/04 02:31:38;;;;;;;1.00;0.90;;;0.10;99.90;;;;;;5094365;28;20098;-79
2023/04/04 02:34:04;;;;;;;1.13;1.13;;;0.00;99.90;;;;;;5095951;28;20047;-79
2023/04/04 02:36:30;;;;;;;1.02;0.95;;;0.00;99.90;;;;;;5094339;28;20054;-79
2023/04/04 02:38:56;;;;;;;1.30;1.20;;;0.00;99.90;;;;;;5094110;28;20104;-79
2023/04/04 02:41:22;;;;;;;1.30;1.20;;;0.00;99.90;;;;;;5095913;28;20433;-79
2023/04/04 02:43:47;;;;;;;1.33;1.23;;;0.00;99.90;;;;;;5095456;28;20036;-79
2023/04/04 02:46:13;;;;;;;1.40;1.30;;;0.00;99.90;;;;;;5094524;28;20119;-79
2023/04/04 02:48:39;;;;;;;1.10;1.10;;;0.00;99.90;;;;;;5077222;28;20032;-79
2023/04/04 02:51:05;;;;;;;1.40;1.33;;;0.10;99.90;;;;;;5095587;28;20044;-79
2023/04/04 02:53:31;;;;;;;1.20;1.15;;;0.10;99.90;;;;;;5095650;28;20036;-79
2023/04/04 02:55:57;;;;;;;1.40;1.30;;;-0.10;99.90;;;;;;5128146;27;20123;-79
2023/04/04 02:58:23;;;;;;;1.13;1.10;;;-0.20;99.90;;;;;;5095108;28;20452;-78
2023/04/04 03:00:55;;;;;;;1.10;1.10;;;-0.20;99.90;;;;;;5093958;28;20051;-79
2023/04/04 03:03:21;;;;;;;1.00;1.00;;;-0.20;99.90;;;;;;5093796;28;20464;-78
2023/04/04 03:05:48;;;;;;;1.20;1.20;;;-0.30;99.90;;;;;;5093791;28;20044;-79
2023/04/04 03:08:14;;;;;;;0.98;0.98;;;-0.20;99.90;;;;;;5095171;28;20042;-79
2023/04/04 03:10:40;;;;;;;1.23;1.20;;;-0.20;99.90;;;;;;5093978;28;20441;-79
2023/04/04 03:13:06;;;;;;;1.30;1.20;;;-0.20;99.90;;;;;;5076771;28;20047;-79
2023/04/04 03:15:33;;;;;;;1.00;1.00;;;-0.20;99.90;;;;;;5094126;28;20043;-79
2023/04/04 03:17:59;;;;;;;1.10;1.10;;;-0.20;99.90;;;;;;5127913;27;20048;-80
2023/04/04 03:20:25;;;;;;;1.35;1.25;;;-0.30;99.90;;;;;;5095093;28;20092;-79
2023/04/04 03:22:51;;;;;;;1.10;1.10;;;-0.40;99.90;;;;;;5095064;28;20067;-79
2023/04/04 03:25:16;;;;;;;1.20;1.20;;;-0.40;99.90;;;;;;5094700;28;20072;-79
2023/04/04 03:27:42;;;;;;;1.20;1.20;;;-0.40;99.90;;;;;;5094964;28;20032;-79
2023/04/04 03:30:08;;;;;;;1.10;1.02;;;-0.20;99.90;;;;;;5093658;28;20036;-79
2023/04/04 03:32:36;;;;;;;1.30;1.20;;;-0.20;99.90;;;;;;5094577;28;20040;-79
2023/04/04 03:35:01;;;;;;;1.00;1.00;;;-0.30;99.90;;;;;;5093345;28;20044;-80
2023/04/04 03:37:29;;;;;;;1.17;1.17;;;-0.50;99.90;;;;;;5094499;28;20048;-79
2023/04/04 03:39:55;;;;;;;1.10;1.10;;;-0.70;99.90;;;;;;5094392;28;20052;-80
2023/04/04 03:42:20;;;;;;;1.38;1.27;;;-0.70;99.90;;;;;;5093318;28;20052;-80
2023/04/04 03:44:46;;;;;;;1.15;1.10;;;-0.80;99.90;;;;;;5093030;28;20062;-79
2023/04/04 03:47:13;;;;;;;1.10;1.10;;;-0.90;99.90;;;;;;5092990;28;20097;-79
2023/04/04 03:49:39;;;;;;;1.20;1.10;;;-0.90;99.90;;;;;;5093220;28;20418;-80
2023/04/04 03:52:05;;;;;;;1.20;1.10;;;-0.90;99.90;;;;;;5094493;28;20032;-80
2023/04/04 03:54:31;;;;;;;1.10;1.10;;;-0.90;99.90;;;;;;5093737;28;20090;-78
2023/04/04 03:56:57;;;;;;;1.13;1.05;;;-0.80;99.90;;;;;;5092990;28;20115;-79
2023/04/04 03:59:23;;;;;;;1.10;1.10;;;-0.90;99.90;;;;;;5094295;28;20060;-79
2023/04/04 04:01:49;;;;;;;1.30;1.20;;;-0.90;99.90;;;;;;5094424;28;20059;-79
2023/04/04 04:04:15;;;;;;;1.20;1.20;;;-0.70;99.90;;;;;;5094577;28;20040;-79
2023/04/04 04:06:40;;;;;;;1.38;1.27;;;-0.70;99.90;;;;;;5092626;28;20040;-79
2023/04/04 04:09:06;;;;;;;1.35;1.30;;;-0.60;99.90;;;;;;5092542;28;20032;-79
2023/04/04 04:11:32;;;;;;;1.40;1.20;;;-0.60;99.90;;;;;;5126609;27;20555;-79
2023/04/04 04:13:59;;;;;;;1.13;1.02;;;-0.50;99.90;;;;;;5092585;28;20067;-79
2023/04/04 04:16:26;;;;;;;1.25;1.10;;;-0.50;99.90;;;;;;5092538;28;20044;-79
2023/04/04 04:18:52;;;;;;;1.30;1.20;;;-0.60;99.90;;;;;;5093989;28;20036;-79
2023/04/04 04:21:17;;;;;;;1.67;1.35;;;-0.70;99.90;;;;;;5093979;28;20541;-79
2023/04/04 04:23:43;;;;;;;1.48;1.38;;;-0.80;99.90;;;;;;5126440;27;20432;-79
2023/04/04 04:26:09;;;;;;;1.25;1.15;;;-0.80;99.90;;;;;;5092285;28;20110;-79
2023/04/04 04:28:35;;;;;;;1.17;1.10;;;-0.80;99.90;;;;;;5092557;28;20040;-79
2023/04/04 04:31:06;;;;;;;1.30;1.20;;;-0.70;99.90;;;;;;5075493;28;20484;-79
2023/04/04 04:33:32;;;;;;;1.33;1.23;;;-0.80;99.90;;;;;;5093975;28;20071;-83
2023/04/04 04:36:02;;;;;;;1.10;1.10;;;-0.80;99.90;;;;;;5075506;28;20044;-80
2023/04/04 04:38:28;;;;;;;1.10;1.10;;;-0.80;99.90;;;;;;5092344;28;20051;-80
2023/04/04 04:40:55;;;;;;;1.13;1.10;;;-0.90;99.90;;;;;;5093786;28;20035;-79
2023/04/04 04:43:24;;;;;;;0.90;0.90;;;-0.90;99.90;;;;;;5092004;28;20040;-79
2023/04/04 04:45:50;;;;;;;1.00;1.00;;;-0.90;99.90;;;;;;5093710;28;20043;-79
2023/04/04 04:48:16;;;;;;;1.10;1.10;;;-0.90;99.90;;;;;;5093677;28;20055;-84
2023/04/04 04:50:48;;;;;;;1.73;1.20;;;-0.90;99.90;;;;;;5092289;28;20115;-83
2023/04/04 04:53:13;;;;;;;1.20;1.10;;;-1.00;99.90;;;;;;5093749;28;20050;-83
2023/04/04 04:55:41;;;;;;;1.45;1.00;;;-1.00;99.90;;;;;;5092619;28;20058;-81
2023/04/04 04:58:07;;;;;;;1.27;1.17;;;-1.10;99.90;;;;;;5092139;28;20044;-78
2023/04/04 05:00:33;;;;;;;1.13;1.13;;;-1.10;99.90;;;;;;5091950;28;20048;-79
2023/04/04 05:02:59;;;;;;;1.10;1.10;;;-1.10;99.90;;;;;;5091946;28;20047;-76
2023/04/04 05:05:26;;;;;;;1.17;1.17;;;-1.20;99.90;;;;;;5076173;28;20036;-77
2023/04/04 05:07:51;;;;;;;1.20;1.15;;;-1.30;99.90;;;;;;5097616;28;20122;-77
2023/04/04 05:10:17;;;;;;;1.35;1.25;;;-1.20;99.90;;;;;;5095965;28;20072;-76
2023/04/04 05:12:43;;;;;;;1.33;1.23;;;-1.20;99.90;;;;;;5095875;28;20052;-77
2023/04/04 05:15:12;;;;;;;1.20;1.20;;;-1.20;99.90;;;;;;5097466;28;20447;-77
2023/04/04 05:17:39;;;;;;;1.10;1.10;;;-1.10;99.90;;;;;;5095891;28;20032;-71
2023/04/04 05:20:06;;;;;;;1.10;1.00;;;-1.10;99.90;;;;;;5095752;28;20093;-77
2023/04/04 05:22:32;;;;;;;1.08;1.00;;;-1.10;99.90;;;;;;5095557;28;20040;-74
2023/04/04 05:24:58;;;;;;;1.10;1.00;;;-1.00;99.90;;;;;;5097158;28;20040;-74
2023/04/04 05:27:23;;;;;;;1.20;1.10;;;-1.00;99.90;;;;;;5097121;28;20464;-74
2023/04/04 05:29:49;;;;;;;1.23;1.10;;;-1.00;99.90;;;;;;5095618;28;20377;-74
2023/04/04 05:32:15;;;;;;;1.23;1.23;;;-1.10;99.90;;;;;;5097046;28;20110;-75
2023/04/04 05:34:40;;;;;;;1.08;1.08;;;-1.00;99.90;;;;;;5097033;28;20032;-75
2023/04/04 05:37:06;;;;;;;1.30;1.20;;;-1.00;99.90;;;;;;5078701;28;20052;-74
2023/04/04 05:39:31;;;;;;;1.00;1.00;;;-0.90;99.90;;;;;;5095436;28;20044;-75
2023/04/04 05:41:57;;;;;;;1.30;1.20;;;-0.70;99.90;;;;;;5096889;28;20086;-75
2023/04/04 05:44:23;;;;;;;1.20;1.20;;;-0.70;99.90;;;;;;5095313;28;20079;-74
2023/04/04 05:46:48;;;;;;;1.08;1.08;;;-0.70;99.90;;;;;;5096773;28;20032;-74
2023/04/04 05:49:14;;;;;;;1.08;1.08;;;-0.60;99.90;;;;;;5078578;28;20043;-74
2023/04/04 05:51:40;;;;;;;1.30;1.20;;;-0.50;99.90;;;;;;5129549;27;20050;-74
2023/04/04 05:54:06;;;;;;;1.20;1.10;;;-0.40;99.90;;;;;;5095278;28;20468;-74
2023/04/04 05:56:32;;;;;;;1.02;1.00;;;-0.30;99.90;;;;;;5096626;28;20032;-78
2023/04/04 05:58:58;;;;;;;1.33;1.20;;;-0.10;99.90;;;;;;5095178;28;20040;-84
2023/04/04 06:01:24;;;;;;;1.17;1.10;;;0.00;99.90;;;;;;5095178;28;20040;-84
2023/04/04 06:03:50;;;;;;;1.10;1.10;;;0.10;99.90;;;;;;5078231;28;20147;-85
2023/04/04 06:06:17;;;;;;;1.05;1.05;;;0.20;99.90;;;;;;5078567;28;20479;-84
2023/04/04 06:08:43;;;;;;;1.30;1.20;;;0.30;99.90;;;;;;5096584;28;20043;-84
2023/04/04 06:11:08;;;;;;;1.17;1.15;;;0.40;99.90;;;;;;5078293;28;20036;-84
2023/04/04 06:13:34;;;;;;;1.10;1.10;;;0.50;99.90;;;;;;5078112;28;20032;-84
2023/04/04 06:16:00;;;;;;;1.10;1.10;;;0.50;99.90;;;;;;5095322;28;20039;-85
2023/04/04 06:18:25;;;;;;;1.33;1.30;;;0.60;99.90;;;;;;5077417;28;20036;-84
2023/04/04 06:20:51;;;;;;;1.13;1.00;;;0.60;99.90;;;;;;5078070;28;20040;-84
2023/04/04 06:23:17;;;;;;;1.00;1.00;;;0.70;99.90;;;;;;5077837;28;20040;-84
2023/04/04 06:25:42;;;;;;;1.10;1.10;;;0.80;99.90;;;;;;5095114;28;20032;-84
2023/04/04 06:28:08;;;;;;;1.30;1.10;;;0.80;99.90;;;;;;5095004;28;20050;-84
2023/04/04 06:30:37;;;;;;;1.02;1.02;;;0.90;99.90;;;;;;5095065;28;20116;-85
2023/04/04 06:33:04;;;;;;;1.10;1.10;;;1.00;99.90;;;;;;5077817;28;20038;-85
2023/04/04 06:35:29;;;;;;;1.10;1.00;;;0.90;99.90;;;;;;5094751;28;20141;-84
2023/04/04 06:37:55;;;;;;;1.30;1.20;;;0.90;99.90;;;;;;5094567;28;20107;-85
2023/04/04 06:40:21;;;;;;;1.00;1.00;;;1.00;99.90;;;;;;5077650;28;20400;-83
2023/04/04 06:42:49;;;;;;;1.00;1.00;;;0.90;99.90;;;;;;5094708;28;20072;-85
2023/04/04 06:45:16;;;;;;;1.13;1.10;;;0.90;99.90;;;;;;5095874;28;20028;-84
2023/04/04 06:47:42;;;;;;;1.23;1.13;;;1.00;99.90;;;;;;5094332;28;20067;-84
2023/04/04 06:50:08;;;;;;;1.30;1.20;;;1.10;99.90;;;;;;5094623;28;20043;-84
2023/04/04 06:52:34;;;;;;;1.30;1.10;;;1.20;99.90;;;;;;5094431;28;20079;-85
2023/04/04 06:55:00;;;;;;;0.93;0.93;;;1.20;99.90;;;;;;5094360;28;20048;-84
2023/04/04 06:57:26;;;;;;;1.02;0.98;;;1.30;99.90;;;;;;5094147;28;20062;-84
2023/04/04 06:59:51;;;;;;;1.00;1.00;;;1.30;99.90;;;;;;5094268;28;20475;-83
2023/04/04 07:02:17;;;;;;;1.80;1.10;;;1.40;99.90;;;;;;5077026;28;20036;-85
2023/04/04 07:04:42;;;;;;;1.27;1.17;;;1.40;99.90;;;;;;5076876;28;20044;-84
2023/04/04 07:07:08;;;;;;;1.00;1.00;;;1.50;99.90;;;;;;5077230;28;20458;-84
2023/04/04 07:09:34;;;;;;;1.30;1.20;;;1.60;99.90;;;;;;5077166;28;20118;-85
2023/04/04 07:11:59;;;;;;;1.48;1.33;;;1.70;99.90;;;;;;5094072;28;20032;-84
2023/04/04 07:14:25;;;;;;;1.20;1.10;;;1.80;99.90;;;;;;5094190;28;20043;-84
2023/04/04 07:16:51;;;;;;;1.27;1.17;;;1.80;99.90;;;;;;5077098;28;20040;-86
2023/04/04 07:19:17;;;;;;;1.45;1.10;;;1.90;99.90;;;;;;5076863;28;20123;-86
2023/04/04 07:21:43;;;;;;;1.25;1.10;;;2.00;99.90;;;;;;5093696;28;20071;-84
2023/04/04 07:24:09;;;;;;;1.17;1.15;;;2.10;99.90;;;;;;5076661;28;20032;-84
2023/04/04 07:26:34;;;;;;;1.73;1.30;;;2.10;99.90;;;;;;5076764;28;20040;-84
2023/04/04 07:29:00;;;;;;;1.00;1.00;;;2.20;99.90;;;;;;5092718;28;20389;-85
2023/04/04 07:31:27;;;;;;;1.10;1.10;;;2.30;99.90;;;;;;5093995;28;20055;-85
2023/04/04 07:33:53;;;;;;;1.30;1.20;;;2.30;99.90;;;;;;5076704;28;20049;-85
2023/04/04 07:36:18;;;;;;;1.27;1.17;;;2.40;99.90;;;;;;5093889;28;20422;-84
2023/04/04 07:38:44;;;;;;;1.23;1.13;;;2.50;99.90;;;;;;5093419;28;20091;-87
2023/04/04 07:41:10;;;;;;;1.25;1.15;;;2.60;99.90;;;;;;5094321;28;20420;-88
2023/04/04 07:43:37;;;;;;;1.20;1.10;;;2.70;99.90;;;;;;5094339;28;20065;-82
2023/04/04 07:46:02;;;;;;;1.50;1.20;;;2.70;99.90;;;;;;5076474;28;20039;-84
2023/04/04 07:48:28;;;;;;;1.27;1.20;;;2.80;99.90;;;;;;5076449;28;20404;-81
2023/04/04 07:50:54;;;;;;;1.00;1.00;;;2.90;99.90;;;;;;5094517;28;20028;-85
2023/04/04 07:53:20;;;;;;;2.25;1.10;;;2.90;99.90;;;;;;5094715;28;20044;-80
2023/04/04 07:55:45;;;;;;;1.17;1.08;;;2.90;99.90;;;;;;5094752;28;20448;-84
2023/04/04 07:58:11;;;;;;;1.20;1.05;;;3.10;99.90;;;;;;5076893;28;20495;-78
2023/04/04 08:00:37;;;;;;;1.20;1.10;;;3.20;99.90;;;;;;5094450;28;20040;-82
2023/04/04 08:03:02;;;;;;;1.00;0.90;;;3.30;99.90;;;;;;5075998;28;20174;-81
2023/04/04 08:05:28;;;;;;;1.30;1.00;;;3.40;99.90;;;;;;5093006;28;20444;-83
2023/04/04 08:07:53;;;;;;;1.02;0.93;;;3.40;99.90;;;;;;5092770;28;20074;-83
2023/04/04 08:10:20;;;;;;;0.73;0.73;;;3.40;99.90;;;;;;5092999;28;20078;-83
2023/04/04 08:12:47;;;;;;;0.90;0.90;;;3.50;99.90;;;;;;5092647;28;20081;-82
2023/04/04 08:15:12;;;;;;;0.80;0.80;;;3.60;99.90;;;;;;5093007;28;20047;-83
2023/04/04 08:17:39;;;;;;;0.88;0.70;;;3.60;99.90;;;;;;5075814;28;20039;-83
2023/04/04 08:20:05;;;;;;;0.80;0.80;;;3.70;99.90;;;;;;5092579;28;20105;-82
2023/04/04 08:22:31;;;;;;;0.73;0.70;;;3.80;99.90;;;;;;5076372;28;20089;-83
2023/04/04 08:24:57;;;;;;;1.10;1.00;;;3.80;99.90;;;;;;5092690;28;20047;-83
2023/04/04 08:27:23;;;;;;;0.85;0.80;;;3.80;99.90;;;;;;5092318;28;20130;-83
2023/04/04 08:29:49;;;;;;;1.13;0.85;;;3.90;99.90;;;;;;5093956;28;20044;-85
2023/04/04 08:32:14;;;;;;;0.88;0.88;;;3.90;99.90;;;;;;5093685;28;20081;-83
2023/04/04 08:34:40;;;;;;;0.85;0.85;;;4.10;99.90;;;;;;5075473;28;20042;-82
2023/04/04 08:37:06;;;;;;;1.00;0.80;;;4.10;99.90;;;;;;5092297;28;20046;-84
2023/04/04 08:39:32;;;;;;;0.95;0.95;;;4.30;99.90;;;;;;5093810;28;20048;-85
2023/04/04 08:42:04;;;;;;;0.80;0.80;;;4.30;99.90;;;;;;5092090;28;20032;-85
2023/04/04 08:44:30;;;;;;;0.98;0.90;;;4.40;99.90;;;;;;5092376;28;20039;-83
2023/04/04 08:46:59;;;;;;;0.70;0.70;;;4.60;99.90;;;;;;5075572;28;20085;-82
2023/04/04 08:49:26;;;;;;;0.70;0.70;;;4.60;99.90;;;;;;5093345;28;20483;-82
2023/04/04 08:51:55;;;;;;;0.82;0.80;;;4.70;99.90;;;;;;5092104;28;20040;-82
2023/04/04 08:54:23;;;;;;;0.77;0.77;;;4.80;99.90;;;;;;5092340;28;20032;-83
2023/04/04 08:56:49;;;;;;;0.75;0.75;;;4.90;99.90;;;;;;5092313;28;20360;-83
2023/04/04 08:59:15;;;;;;;0.80;0.80;;;5.00;99.90;;;;;;5093650;28;20047;-83
2023/04/04 09:01:41;;;;;;;0.90;0.70;;;5.10;99.90;;;;;;5092158;28;20426;-84
2023/04/04 09:04:09;;;;;;;1.55;0.85;;;5.20;99.90;;;;;;5091874;28;20040;-84
2023/04/04 09:06:35;;;;;;;0.70;0.70;;;5.30;99.90;;;;;;5092314;28;20136;-84
2023/04/04 09:09:02;;;;;;;0.70;0.70;;;5.30;99.90;;;;;;5092466;28;20066;-84
2023/04/04 09:11:30;;;;;;;0.65;0.65;;;5.40;99.90;;;;;;5093578;28;20072;-83
2023/04/04 09:13:57;;;;;;;0.75;0.75;;;5.50;99.90;;;;;;5092185;28;20438;-83
2023/04/04 09:16:23;;;;;;;0.93;0.70;;;5.60;99.90;;;;;;5093401;28;20103;-84
2023/04/04 09:18:49;;;;;;;0.82;0.82;;;5.60;99.90;;;;;;5092221;28;20044;-85
2023/04/04 09:21:15;;;;;;;0.75;0.70;;;5.70;99.90;;;;;;5075305;28;20487;-85
2023/04/04 09:23:42;;;;;;;0.70;0.70;;;5.80;99.90;;;;;;5091897;28;20589;-84
2023/04/04 09:26:08;;;;;;;1.10;1.00;;;5.80;99.90;;;;;;5074973;28;20122;-82
2023/04/04 09:28:34;;;;;;;0.77;0.77;;;5.80;99.90;;;;;;5092300;28;20115;-87
2023/04/04 09:31:01;;;;;;;0.98;0.80;;;5.90;99.90;;;;;;5092175;28;20043;-82
2023/04/04 09:33:27;;;;;;;0.70;0.70;;;5.90;99.90;;;;;;5074951;28;20035;-82
2023/04/04 09:36:08;;;;;;;0.75;0.75;;;5.90;99.90;;;;;;5091885;28;20399;-82
2023/04/04 09:38:42;;;;;;;0.80;0.80;;;6.00;99.90;;;;;;5091591;28;20063;-79
2023/04/04 09:41:09;;;;;;;1.02;0.95;;;6.00;99.90;;;;;;5075130;28;20036;-83
2023/04/04 09:43:36;;;;;;;1.45;0.88;;;6.10;99.70;;;;;;5091603;28;20092;-82
2023/04/04 09:46:02;;;;;;;0.75;0.75;;;6.10;99.90;;;;;;5075087;28;20040;-82
2023/04/04 09:48:33;;;;;;;0.63;0.63;;;6.20;99.90;;;;;;5093112;28;20040;-83
2023/04/04 09:50:59;;;;;;;0.70;0.70;;;6.20;99.20;;;;;;5074747;28;20036;-83
2023/04/04 09:53:26;;;;;;;0.80;0.70;;;6.30;99.00;;;;;;5094347;28;20051;-83
2023/04/04 09:55:53;;;;;;;0.70;0.70;;;6.30;99.30;;;;;;5095596;28;20036;-84
2023/04/04 09:58:25;;;;;;;0.60;0.60;;;6.30;99.60;;;;;;5095606;28;20040;-85
2023/04/04 10:00:53;;;;;;;0.93;0.80;;;6.50;99.90;;;;;;5096842;28;20044;-85
2023/04/04 10:03:22;;;;;;;1.45;0.70;;;6.50;99.40;;;;;;5095529;28;20040;-84
2023/04/04 10:05:56;;;;;;;0.70;0.70;;;6.60;98.80;;;;;;5095352;28;20032;-84
2023/04/04 10:08:22;;;;;;;0.60;0.60;;;6.70;98.60;;;;;;5095422;28;20051;-80
2023/04/04 10:10:55;;;;;;;0.70;0.70;;;6.80;97.30;;;;;;5094978;28;20043;-83
2023/04/04 10:13:32;;;;;;;0.80;0.80;;;6.80;97.20;;;;;;5095287;28;20051;-83
2023/04/04 10:15:59;;;;;;;0.90;0.90;;;6.80;97.30;;;;;;5094802;28;20086;-85
2023/04/04 10:18:27;;;;;;;0.70;0.70;;;6.90;97.40;;;;;;5095276;28;20040;-86
2023/04/04 10:20:54;;;;;;;0.70;0.70;;;6.90;96.80;;;;;;5078028;28;20040;-85
2023/04/04 10:23:22;;;;;;;0.73;0.70;;;6.90;96.40;;;;;;5096351;28;20040;-85
2023/04/04 10:25:48;;;;;;;0.80;0.80;;;6.90;96.40;;;;;;5078109;28;20039;-84
2023/04/04 10:28:19;;;;;;;0.90;0.65;;;7.00;97.30;;;;;;5094707;28;20488;-83
2023/04/04 10:31:08;;;;;;;;;;;7.10;97.40;;;;;;5078701;28;20384;-83
2023/04/04 10:33:53;;;;;;;1.17;0.70;;;7.10;97.70;;;;;;5090206;28;19916;-82
2023/04/04 10:36:26;;;;;;;0.70;0.70;;;7.30;97.40;;;;;;5094845;28;20042;-83
2023/04/04 10:39:10;;;;;;;0.80;0.70;;;7.30;95.80;;;;;;5095563;28;20056;-83
2023/04/04 10:41:38;;;;;;;0.88;0.82;;;7.30;95.40;;;;;;5094723;28;20070;-83
2023/04/04 10:44:42;;;;;;;0.60;0.60;;;7.30;96.30;;;;;;5077360;28;20098;-85
2023/04/04 10:47:20;;;;;;;1.10;1.00;;;7.50;96.10;;;;;;5075236;28;20041;-83
2023/04/04 10:49:47;;;;;;;0.68;0.68;;;7.50;95.80;;;;;;5077815;28;20081;-81
2023/04/04 10:52:15;;;;;;;0.70;0.70;;;7.60;95.20;;;;;;5094342;28;20074;-83
2023/04/04 10:54:42;;;;;;;0.68;0.68;;;7.70;94.60;;;;;;5077407;28;20579;-80
2023/04/04 10:57:09;;;;;;;0.60;0.60;;;7.80;93.60;;;;;;5094381;28;20059;-86
2023/04/04 10:59:57;;;;;;;0.60;0.60;;;7.90;92.90;;;;;;5077350;28;20392;-85
2023/04/04 11:02:42;;;;;;;0.70;0.70;;;8.00;93.30;;;;;;5077009;28;20032;-82
2023/04/04 11:05:24;;;;;;;0.60;0.60;;;8.20;93.20;;;;;;5093843;28;20061;-84
2023/04/04 11:08:06;;;;;;;0.70;0.70;;;8.30;92.20;;;;;;5095505;28;20036;-85
2023/04/04 11:10:37;;;;;;;0.60;0.60;;;8.50;91.30;;;;;;5076910;28;20097;-82
2023/04/04 11:13:11;;;;;;;0.60;0.60;;;8.70;91.00;;;;;;5077015;28;20040;-83
2023/04/04 11:16:00;;;;;;;0.60;0.60;;;8.80;90.70;;;;;;5095763;28;20044;-84
2023/04/04 11:18:41;;;;;;;0.70;0.70;;;9.00;89.10;;;;;;5093914;28;20480;-84
2023/04/04 11:21:23;;;;;;;0.70;0.70;;;9.10;90.10;;;;;;5076847;28;20048;-84
2023/04/04 11:23:58;;;;;;;0.70;0.70;;;9.30;88.10;;;;;;5094861;28;20098;-84
2023/04/04 11:26:27;;;;;;;0.70;0.70;;;9.40;87.30;;;;;;5076651;28;20158;-84
2023/04/04 11:29:19;;;;;;;0.60;0.60;;;9.40;84.40;;;;;;5095006;28;20036;-85
2023/04/04 11:31:48;;;;;;;0.63;0.63;;;9.50;79.80;;;;;;5077515;28;20075;-84
2023/04/04 11:34:30;;;;;;;0.73;0.73;;;9.60;79.00;;;;;;5093721;28;20387;-83
2023/04/04 11:36:56;;;;;;;0.60;0.50;;;9.60;79.60;;;;;;5093098;28;20089;-83
2023/04/04 11:39:30;;;;;;;0.50;0.50;;;9.70;80.10;;;;;;5093241;28;20040;-83
2023/04/04 11:42:06;;;;;;;1.35;0.70;;;9.80;78.60;;;;;;5076342;28;20085;-84
2023/04/04 11:44:38;;;;;;;0.60;0.60;;;9.80;78.20;;;;;;5093533;28;20391;-83
2023/04/04 11:47:08;;;;;;;0.60;0.60;;;9.80;76.90;;;;;;5076450;28;20044;-84
2023/04/04 11:49:41;;;;;;;0.50;0.50;;;9.80;76.20;;;;;;5094716;28;20042;-84
2023/04/04 11:52:10;;;;;;;0.52;0.52;;;9.80;77.00;;;;;;5076114;28;20044;-84
2023/04/04 11:54:40;;;;;;;0.50;0.50;;;9.80;77.40;;;;;;5093345;28;20044;-82
2023/04/04 11:57:16;;;;;;;0.82;0.60;;;9.80;78.00;;;;;;5094396;28;20047;-82
2023/04/04 11:59:44;;;;;;;0.82;0.70;;;9.90;76.80;;;;;;5076034;28;20032;-83
2023/04/04 12:02:11;;;;;;;0.60;0.60;;;10.00;76.60;;;;;;5093108;28;20483;-84
2023/04/04 12:04:39;;;;;;;0.70;0.70;;;10.10;76.10;;;;;;5093016;28;20039;-83
2023/04/04 12:07:06;;;;;;;0.60;0.60;;;10.20;75.90;;;;;;5076059;28;20059;-83
2023/04/04 12:09:33;;;;;;;1.25;0.68;;;10.30;75.10;;;;;;5092997;28;20028;-82
2023/04/04 12:11:59;;;;;;;0.70;0.70;;;10.30;75.10;;;;;;5092613;28;20040;-82
2023/04/04 12:14:26;;;;;;;0.60;0.60;;;10.40;74.60;;;;;;5075846;28;20040;-83
2023/04/04 12:16:53;;;;;;;1.35;0.80;;;10.50;72.10;;;;;;5092466;28;20063;-83
2023/04/04 12:19:21;;;;;;;0.65;0.65;;;10.60;74.40;;;;;;5092496;28;20484;-82
2023/04/04 12:21:48;;;;;;;0.60;0.60;;;10.80;73.70;;;;;;5092845;28;20115;-84
2023/04/04 12:24:15;;;;;;;0.60;0.60;;;11.00;75.00;;;;;;5075559;28;20040;-83
2023/04/04 12:26:43;;;;;;;0.60;0.60;;;11.20;72.80;;;;;;5093982;28;20044;-84
2023/04/04 12:29:11;;;;;;;0.50;0.50;;;11.30;71.50;;;;;;5092721;28;20036;-83
2023/04/04 12:31:38;;;;;;;0.60;0.60;;;11.40;68.50;;;;;;5093930;28;20044;-83
2023/04/04 12:34:04;;;;;;;0.60;0.60;;;11.50;67.10;;;;;;5075525;28;20091;-84
2023/04/04 12:36:31;;;;;;;0.52;0.52;;;11.50;68.30;;;;;;5075489;28;20079;-83
2023/04/04 12:39:06;;;;;;;0.50;0.50;;;11.40;69.50;;;;;;5075344;28;20092;-84
2023/04/04 12:41:33;;;;;;;1.75;0.75;;;11.50;68.80;;;;;;5075441;28;20040;-84
2023/04/04 12:44:01;;;;;;;0.65;0.63;;;11.70;66.00;;;;;;5092423;28;20099;-84
2023/04/04 12:46:27;;;;;;;0.57;0.57;;;11.80;68.30;;;;;;5075327;28;20511;-84
2023/04/04 12:48:53;;;;;;;0.77;0.60;;;11.80;67.80;;;;;;5075294;28;20079;-83
2023/04/04 12:51:19;;;;;;;0.60;0.60;;;12.00;68.20;;;;;;5093744;28;20048;-82
2023/04/04 12:53:52;;;;;;;0.60;0.60;;;12.20;69.30;;;;;;5075235;28;20051;-86
2023/04/04 12:56:18;;;;;;;0.60;0.60;;;12.30;64.80;;;;;;5075721;28;20419;-85